Portada
METAR-TAF:

METAR-TAF

Aeropuertos :

Castres, Francia

latitud: 43-33-25N, longitud: 2-17-21E, altitud: 239 m

Observación

El informe se hizo hace 31 minutos, a las 04:30 UTC
Viento 7 kt del noroeste
Temperatura 3°C
Humedad 93%
Presión 1015 hPa
Visibilidad 10 km o más
Cielo cubierto a una altura de 1000 ft

METAR: LFCK 040430Z AUTO 31007KT 9999 OVC010 03/02 Q1015

Hora: 06:01 (05:01 UTC)

Pronóstico

El informe se hizo hace 12 horas y 1 minutos, a las 17:00 UTC
Pronóstico válido del 03 a las 18 UTC al 04 a las 03 UTC
Viento 15 kt del oeste-noroeste
Visibilidad 10 km o más
Cielo nuboso a una altura de 4000 ft
Evolucionando progresivamente
del 03 a las 21 UTC al 03 a las 23 UTC
Cielo nuboso a una altura de 900 ft

TAF: LFCK 031700Z 0318/0403 30015KT 9999 BKN040 BECMG 0321/0323 BKN009

Observaciones y pronósticos meteorológicos de más de 4000 aeropuertos (mensajes METAR y TAF).

Los puntos amarillos y rojos representan las estaciones disponibles.

Ponga el ratón en el punto deseado para ver el nombre de la estación.

Haga clic para ver las observaciones y los pronósticos meteorológicos.

Para cambiar el mapa : haga clic en los botones verdes con una cruz de color negro para hacer un zoom, en el botón verde con un guión para alejar o en las flechas verdes para mapas adyacentes.


METAR-TAF: